createdAt,value
2019-01-12T00:00:47.772Z,19.04
2019-01-12T00:01:45.725Z,19.05
2019-01-12T00:02:42.783Z,19.05
2019-01-12T00:03:39.858Z,19.04
2019-01-12T00:04:36.917Z,19.04
2019-01-12T00:05:34.001Z,19.04
2019-01-12T00:06:31.048Z,19.04
2019-01-12T00:07:28.104Z,19.04
2019-01-12T00:08:25.166Z,19.05
2019-01-12T00:09:22.231Z,19.04
2019-01-12T00:10:19.316Z,19.04
2019-01-12T00:11:16.363Z,19.04
2019-01-12T00:12:13.436Z,19.04
2019-01-12T00:13:10.637Z,19.04
2019-01-12T00:14:07.568Z,19.04
2019-01-12T00:15:04.637Z,19.04
2019-01-12T00:16:01.721Z,19.04
2019-01-12T00:16:58.765Z,19.04
2019-01-12T00:17:55.830Z,19.03
2019-01-12T00:18:53.739Z,19.04
2019-01-12T00:20:47.038Z,19.04
2019-01-12T00:21:44.085Z,19.03
2019-01-12T00:22:41.171Z,19.03
2019-01-12T00:23:38.224Z,19.01
2019-01-12T00:24:35.295Z,19.04
2019-01-12T00:25:32.355Z,19.03
2019-01-12T00:26:29.423Z,19.02
2019-01-12T00:27:26.489Z,19.03
2019-01-12T00:28:23.555Z,19.01
2019-01-12T00:29:20.629Z,19.02
2019-01-12T00:30:17.690Z,19.01
2019-01-12T00:31:14.763Z,19.02
2019-01-12T00:32:12.819Z,19.02
2019-01-12T00:33:08.885Z,19.01
2019-01-12T00:34:05.967Z,19.01
2019-01-12T00:35:03.020Z,19.00
2019-01-12T00:36:00.090Z,19.00
2019-01-12T00:36:57.154Z,19.00
2019-01-12T00:37:54.223Z,19.00
2019-01-12T00:38:52.286Z,19.00
2019-01-12T00:39:48.366Z,19.00
2019-01-12T00:40:45.417Z,18.98
2019-01-12T00:41:42.652Z,18.98
2019-01-12T00:42:39.543Z,19.00
2019-01-12T00:43:36.610Z,18.98
2019-01-12T00:44:33.683Z,18.98
2019-01-12T00:45:31.739Z,18.98
2019-01-12T00:46:27.817Z,19.00
2019-01-12T00:47:24.871Z,18.97
2019-01-12T00:48:21.945Z,18.97
2019-01-12T00:49:19.017Z,18.98
2019-01-12T00:50:16.073Z,18.97
2019-01-12T00:51:13.154Z,18.98
2019-01-12T00:52:10.213Z,18.97
2019-01-12T00:53:07.585Z,18.97
2019-01-12T00:54:04.345Z,18.97
2019-01-12T00:55:01.414Z,19.00
2019-01-12T00:55:58.624Z,18.97
2019-01-12T00:56:55.539Z,18.97
2019-01-12T00:57:52.607Z,18.97
2019-01-12T00:58:49.667Z,18.97
2019-01-12T00:59:46.739Z,19.00
2019-01-12T01:00:43.809Z,18.98
2019-01-12T01:01:41.079Z,18.98
2019-01-12T01:02:37.935Z,18.97
2019-01-12T01:03:35.037Z,18.96
2019-01-12T01:04:32.073Z,18.97
2019-01-12T01:05:29.130Z,18.96
2019-01-12T01:06:26.219Z,18.96
2019-01-12T01:07:23.273Z,18.97
2019-01-12T01:08:20.343Z,18.97
2019-01-12T01:09:17.400Z,18.97
2019-01-12T01:10:14.605Z,18.97
2019-01-12T01:11:11.576Z,18.96
2019-01-12T01:12:08.605Z,18.97
2019-01-12T01:13:05.660Z,18.97
2019-01-12T01:14:02.725Z,18.96
2019-01-12T01:14:59.802Z,18.96
2019-01-12T01:15:56.859Z,18.98
2019-01-12T01:16:54.237Z,18.95
2019-01-12T01:17:50.999Z,18.96
2019-01-12T01:18:48.068Z,18.95
2019-01-12T01:19:46.131Z,18.95
2019-01-12T01:20:42.192Z,18.95
2019-01-12T01:21:39.260Z,18.95
2019-01-12T01:22:37.347Z,18.95
2019-01-12T01:23:33.389Z,18.94
2019-01-12T01:24:30.613Z,18.95
2019-01-12T01:25:27.532Z,18.95
2019-01-12T01:26:24.600Z,18.95
2019-01-12T01:27:21.693Z,18.95
2019-01-12T01:28:18.728Z,18.95
2019-01-12T01:29:15.796Z,18.95
2019-01-12T01:30:12.857Z,18.95
2019-01-12T01:31:09.922Z,18.94
2019-01-12T01:32:06.996Z,18.95
2019-01-12T01:33:04.051Z,18.95
2019-01-12T01:34:01.119Z,18.95
2019-01-12T01:34:58.184Z,18.95
2019-01-12T01:35:55.257Z,18.93
2019-01-12T01:36:52.333Z,18.94
2019-01-12T01:37:49.387Z,18.94
2019-01-12T01:38:46.446Z,18.93
2019-01-12T01:39:43.514Z,18.93
2019-01-12T01:40:40.577Z,18.93
2019-01-12T01:41:37.647Z,18.93
2019-01-12T01:42:34.725Z,18.92
2019-01-12T01:43:32.784Z,18.93
2019-01-12T01:44:28.849Z,18.93
2019-01-12T01:45:25.918Z,18.92
2019-01-12T01:46:22.982Z,18.92
2019-01-12T01:47:20.059Z,18.92
2019-01-12T01:48:17.116Z,18.92
2019-01-12T01:49:14.184Z,18.92
2019-01-12T01:50:11.252Z,18.90
2019-01-12T01:51:08.324Z,18.92
2019-01-12T01:52:05.383Z,18.90
2019-01-12T01:53:02.618Z,18.90
2019-01-12T01:53:59.509Z,18.92
2019-01-12T01:54:56.571Z,18.90
2019-01-12T01:55:53.641Z,18.90
2019-01-12T01:56:50.719Z,18.90
2019-01-12T01:57:47.780Z,18.90
2019-01-12T01:58:44.843Z,18.90
2019-01-12T01:59:41.907Z,18.90
2019-01-12T02:00:39.967Z,18.92
2019-01-12T02:01:36.033Z,18.92
2019-01-12T02:02:33.103Z,18.89
2019-01-12T02:03:30.174Z,18.90
2019-01-12T02:04:27.246Z,18.90
2019-01-12T02:05:24.310Z,18.90
2019-01-12T02:06:21.370Z,18.89
2019-01-12T02:07:19.434Z,18.90
2019-01-12T02:08:15.525Z,18.90
2019-01-12T02:09:12.593Z,18.90
2019-01-12T02:10:09.647Z,18.90
2019-01-12T02:11:06.703Z,18.89
2019-01-12T02:12:03.761Z,18.89
2019-01-12T02:13:00.842Z,18.90
2019-01-12T02:13:58.901Z,18.90
2019-01-12T02:14:54.988Z,18.90
2019-01-12T02:15:52.027Z,18.90
2019-01-12T02:16:49.097Z,18.92
2019-01-12T02:17:46.166Z,18.89
2019-01-12T02:18:43.233Z,18.89
2019-01-12T02:19:40.288Z,18.88
2019-01-12T02:20:37.367Z,18.90
2019-01-12T02:21:34.734Z,18.89
2019-01-12T02:22:31.494Z,18.88
2019-01-12T02:23:28.567Z,18.90
2019-01-12T02:24:26.623Z,18.89
2019-01-12T02:25:22.684Z,18.89
2019-01-12T02:26:19.758Z,18.88
2019-01-12T02:27:16.824Z,18.88
2019-01-12T02:28:13.902Z,18.87
2019-01-12T02:29:10.958Z,18.88
2019-01-12T02:30:08.026Z,18.87
2019-01-12T02:31:05.087Z,18.87
2019-01-12T02:32:02.173Z,18.88
2019-01-12T02:32:59.229Z,18.87
2019-01-12T02:33:56.299Z,18.87
2019-01-12T02:34:53.349Z,18.87
2019-01-12T02:35:50.423Z,18.88
2019-01-12T02:36:47.492Z,18.88
2019-01-12T02:37:44.556Z,18.88
2019-01-12T02:38:41.620Z,18.88
2019-01-12T02:39:38.675Z,18.87
2019-01-12T02:40:35.745Z,18.88
2019-01-12T02:41:33.811Z,18.87
2019-01-12T02:42:29.873Z,18.87
2019-01-12T02:43:26.942Z,18.87
2019-01-12T02:44:24.015Z,18.88
2019-01-12T02:45:21.072Z,18.87
2019-01-12T02:46:18.141Z,18.87
2019-01-12T02:47:15.215Z,18.87
2019-01-12T02:48:12.275Z,18.88
2019-01-12T02:49:09.365Z,18.87
2019-01-12T02:50:06.400Z,18.87
2019-01-12T02:51:03.467Z,18.87
2019-01-12T02:52:00.540Z,18.87
2019-01-12T02:52:57.615Z,18.87
2019-01-12T02:53:54.668Z,18.88
2019-01-12T02:54:51.745Z,18.87
2019-01-12T02:55:48.828Z,18.87
2019-01-12T02:56:45.870Z,18.87
2019-01-12T02:57:42.951Z,18.87
2019-01-12T02:58:40.009Z,18.87
2019-01-12T02:59:37.082Z,18.87
2019-01-12T03:00:34.128Z,18.86
2019-01-12T03:01:31.196Z,18.86
2019-01-12T03:02:28.266Z,18.87
2019-01-12T03:03:25.788Z,18.87
2019-01-12T03:04:22.413Z,18.87
2019-01-12T03:05:19.464Z,18.86
2019-01-12T03:06:16.528Z,18.86
2019-01-12T03:07:13.587Z,18.85
2019-01-12T03:08:10.667Z,18.87
2019-01-12T03:09:07.728Z,18.86
2019-01-12T03:10:04.798Z,18.87
2019-01-12T03:11:01.877Z,18.85
2019-01-12T03:11:58.926Z,18.87
2019-01-12T03:12:56.006Z,18.85
2019-01-12T03:13:53.059Z,18.86
2019-01-12T03:14:50.133Z,18.85
2019-01-12T03:15:47.197Z,18.86
2019-01-12T03:16:44.261Z,18.86
2019-01-12T03:17:41.323Z,18.86
2019-01-12T03:18:38.392Z,18.86
2019-01-12T03:19:35.468Z,18.86
2019-01-12T03:20:32.646Z,18.87
2019-01-12T03:21:29.598Z,18.86
2019-01-12T03:22:26.664Z,18.85
2019-01-12T03:23:23.716Z,18.86
2019-01-12T03:24:20.784Z,18.85
2019-01-12T03:25:19.206Z,18.85
2019-01-12T03:26:15.218Z,18.85
2019-01-12T03:27:11.975Z,18.85
2019-01-12T03:28:09.055Z,18.85
2019-01-12T03:29:07.117Z,18.84
2019-01-12T03:30:03.221Z,18.84
2019-01-12T03:31:00.254Z,18.82
2019-01-12T03:31:57.317Z,18.85
2019-01-12T03:32:54.392Z,18.82
2019-01-12T03:33:51.443Z,18.82
2019-01-12T03:34:48.708Z,18.82
2019-01-12T03:35:45.602Z,18.84
2019-01-12T03:36:42.665Z,18.82
2019-01-12T03:37:39.707Z,18.81
2019-01-12T03:38:36.778Z,18.82
2019-01-12T03:39:33.841Z,18.84
2019-01-12T03:40:30.915Z,18.81
2019-01-12T03:41:27.972Z,18.82
2019-01-12T03:42:25.039Z,18.82
2019-01-12T03:43:22.127Z,18.81
2019-01-12T03:44:19.166Z,18.81
2019-01-12T03:45:16.255Z,18.81
2019-01-12T03:46:13.311Z,18.81
2019-01-12T03:47:10.392Z,18.81
2019-01-12T03:48:07.439Z,18.80
2019-01-12T03:49:04.502Z,18.80
2019-01-12T03:50:01.576Z,18.81
2019-01-12T03:50:58.638Z,18.81
2019-01-12T03:51:55.896Z,18.80
2019-01-12T03:52:52.782Z,18.81
2019-01-12T03:53:49.847Z,18.81
2019-01-12T03:54:46.891Z,18.80
2019-01-12T03:55:43.975Z,18.79
2019-01-12T03:56:41.036Z,18.80
2019-01-12T03:57:38.121Z,18.80
2019-01-12T03:58:35.159Z,18.81
2019-01-12T03:59:32.242Z,18.81
2019-01-12T04:00:29.302Z,18.79
2019-01-12T04:01:26.367Z,18.79
2019-01-12T04:02:23.430Z,18.79
2019-01-12T04:03:20.624Z,18.80
2019-01-12T04:04:17.558Z,18.80
2019-01-12T04:05:14.627Z,18.80
2019-01-12T04:06:11.697Z,18.81
2019-01-12T04:07:08.759Z,18.80
2019-01-12T04:08:05.820Z,18.79
2019-01-12T04:09:03.081Z,18.80
2019-01-12T04:10:00.958Z,18.80
2019-01-12T04:10:57.028Z,18.79
2019-01-12T04:11:54.091Z,18.79
2019-01-12T04:12:51.159Z,18.79
2019-01-12T04:13:48.223Z,18.79
2019-01-12T04:14:45.282Z,18.79
2019-01-12T04:15:42.349Z,18.79
2019-01-12T04:16:39.421Z,18.79
2019-01-12T04:17:36.512Z,18.78
2019-01-12T04:18:33.543Z,18.79
2019-01-12T04:19:30.616Z,18.79
2019-01-12T04:20:27.687Z,18.78
2019-01-12T04:21:24.759Z,18.78
2019-01-12T04:22:21.812Z,18.78
2019-01-12T04:23:18.896Z,18.79
2019-01-12T04:24:15.951Z,18.79
2019-01-12T04:25:13.017Z,18.78
2019-01-12T04:26:10.082Z,18.79
2019-01-12T04:27:07.152Z,18.78
2019-01-12T04:28:04.215Z,18.78
2019-01-12T04:29:01.284Z,18.78
2019-01-12T04:29:58.346Z,18.77
2019-01-12T04:30:55.432Z,18.77
2019-01-12T04:31:52.483Z,18.78
2019-01-12T04:32:49.550Z,18.78
2019-01-12T04:33:46.615Z,18.77
2019-01-12T04:34:43.679Z,18.77
2019-01-12T04:35:40.749Z,18.76
2019-01-12T04:36:37.815Z,18.78
2019-01-12T04:37:34.884Z,18.77
2019-01-12T04:38:31.938Z,18.76
2019-01-12T04:39:29.017Z,18.76
2019-01-12T04:40:26.073Z,18.77
2019-01-12T04:41:23.160Z,18.77
2019-01-12T04:42:20.214Z,18.77
2019-01-12T04:43:17.313Z,18.76
2019-01-12T04:44:14.347Z,18.76
2019-01-12T04:45:11.397Z,18.77
2019-01-12T04:46:08.604Z,18.78
2019-01-12T04:47:05.544Z,18.77
2019-01-12T04:48:02.604Z,18.78
2019-01-12T04:48:59.674Z,18.77
2019-01-12T04:49:56.737Z,18.77
2019-01-12T04:50:54.804Z,18.76
2019-01-12T04:51:50.868Z,18.78
2019-01-12T04:52:47.955Z,18.77
2019-01-12T04:53:45.012Z,18.75
2019-01-12T04:54:42.065Z,18.76
2019-01-12T04:55:41.628Z,18.76
2019-01-12T04:56:36.203Z,18.76
2019-01-12T04:57:34.285Z,18.75
2019-01-12T04:58:30.334Z,18.76
2019-01-12T04:59:27.401Z,18.76
2019-01-12T05:00:24.599Z,18.76
2019-01-12T05:01:21.532Z,18.75
2019-01-12T05:02:18.597Z,18.76
2019-01-12T05:03:15.685Z,18.76
2019-01-12T05:04:12.728Z,18.75
2019-01-12T05:05:09.813Z,18.76
2019-01-12T05:06:06.860Z,18.73
2019-01-12T05:07:03.929Z,18.75
2019-01-12T05:08:01.001Z,18.75
2019-01-12T05:08:58.053Z,18.75
2019-01-12T05:09:55.137Z,18.75
2019-01-12T05:10:52.203Z,18.75
2019-01-12T05:11:49.299Z,18.75
2019-01-12T05:12:46.335Z,18.75
2019-01-12T05:13:43.393Z,18.75
2019-01-12T05:14:40.595Z,18.76
2019-01-12T05:15:37.542Z,18.75
2019-01-12T05:16:34.594Z,18.75
2019-01-12T05:17:31.659Z,18.76
2019-01-12T05:18:29.033Z,18.75
2019-01-12T05:19:25.794Z,18.75
2019-01-12T05:20:22.867Z,18.73
2019-01-12T05:21:20.918Z,18.73
2019-01-12T05:22:16.985Z,18.73
2019-01-12T05:23:14.060Z,18.75
2019-01-12T05:24:11.123Z,18.75
2019-01-12T05:25:08.191Z,18.75
2019-01-12T05:26:05.255Z,18.73
2019-01-12T05:27:02.515Z,18.75
2019-01-12T05:28:00.387Z,18.73
2019-01-12T05:28:56.463Z,18.75
2019-01-12T05:29:53.514Z,18.75
2019-01-12T05:30:50.602Z,18.73
2019-01-12T05:31:47.648Z,18.73
2019-01-12T05:32:44.709Z,18.73
2019-01-12T05:33:41.781Z,18.72
2019-01-12T05:34:38.843Z,18.72
2019-01-12T05:35:35.909Z,18.73
2019-01-12T05:36:32.977Z,18.73
2019-01-12T05:37:30.046Z,18.73
2019-01-12T05:38:27.114Z,18.72
2019-01-12T05:39:24.176Z,18.72
2019-01-12T05:40:21.240Z,18.73
2019-01-12T05:41:18.309Z,18.72
2019-01-12T05:42:15.686Z,18.72
2019-01-12T05:43:12.435Z,18.71
2019-01-12T05:44:09.516Z,18.71
2019-01-12T05:45:07.582Z,18.71
2019-01-12T05:46:03.638Z,18.73
2019-01-12T05:47:00.717Z,18.72
2019-01-12T05:47:57.774Z,18.71
2019-01-12T05:48:54.854Z,18.71
2019-01-12T05:49:51.907Z,18.73
2019-01-12T05:50:48.977Z,18.72
2019-01-12T05:51:46.038Z,18.72
2019-01-12T05:52:43.116Z,18.72
2019-01-12T05:53:40.191Z,18.72
2019-01-12T05:54:37.234Z,18.72
2019-01-12T05:55:34.300Z,18.72
2019-01-12T05:56:31.378Z,18.72
2019-01-12T05:57:28.433Z,18.73
2019-01-12T05:58:25.505Z,18.73
2019-01-12T05:59:22.573Z,18.72
2019-01-12T06:00:19.632Z,18.72
2019-01-12T06:01:16.700Z,18.71
2019-01-12T06:02:13.765Z,18.72
2019-01-12T06:03:10.824Z,18.71
2019-01-12T06:04:07.908Z,18.72
2019-01-12T06:05:04.962Z,18.72
2019-01-12T06:06:02.328Z,18.70
2019-01-12T06:06:59.101Z,18.70
2019-01-12T06:07:56.168Z,18.72
2019-01-12T06:08:54.233Z,18.71
2019-01-12T06:09:50.285Z,18.72
2019-01-12T06:10:47.372Z,18.72
2019-01-12T06:11:44.427Z,18.71
2019-01-12T06:12:41.498Z,18.71
2019-01-12T06:13:38.582Z,18.70
2019-01-12T06:14:35.630Z,18.71
2019-01-12T06:15:32.692Z,18.71
2019-01-12T06:16:29.779Z,18.71
2019-01-12T06:17:26.828Z,18.71
2019-01-12T06:18:23.897Z,18.70
2019-01-12T06:19:20.957Z,18.70
2019-01-12T06:20:18.033Z,18.71
2019-01-12T06:21:15.087Z,18.70
2019-01-12T06:22:12.158Z,18.71
2019-01-12T06:23:09.227Z,18.70
2019-01-12T06:24:06.287Z,18.70
2019-01-12T06:25:03.359Z,18.70
2019-01-12T06:26:04.085Z,18.70
2019-01-12T06:26:57.480Z,18.70
2019-01-12T06:27:54.554Z,18.70
2019-01-12T06:28:51.619Z,18.70
2019-01-12T06:29:49.000Z,18.70
2019-01-12T06:30:45.752Z,18.70
2019-01-12T06:31:42.817Z,18.70
2019-01-12T06:32:40.879Z,18.70
2019-01-12T06:33:36.947Z,18.70
2019-01-12T06:34:34.033Z,18.70
2019-01-12T06:35:31.087Z,18.70
2019-01-12T06:36:28.158Z,18.70
2019-01-12T06:37:25.224Z,18.70
2019-01-12T06:38:22.729Z,18.70
2019-01-12T06:39:19.343Z,18.70
2019-01-12T06:40:16.437Z,18.69
2019-01-12T06:41:13.476Z,18.70
2019-01-12T06:42:10.550Z,18.69
2019-01-12T06:43:07.649Z,18.69
2019-01-12T06:44:04.679Z,18.69
2019-01-12T06:45:01.744Z,18.69
2019-01-12T06:45:58.807Z,18.69
2019-01-12T06:46:55.882Z,18.70
2019-01-12T06:47:52.940Z,18.70
2019-01-12T06:48:50.008Z,18.69
2019-01-12T06:49:48.084Z,18.69
2019-01-12T06:50:44.134Z,18.70
2019-01-12T06:51:41.209Z,18.70
2019-01-12T06:52:38.270Z,18.68
2019-01-12T06:53:35.347Z,18.70
2019-01-12T06:54:32.401Z,18.69
2019-01-12T06:55:29.476Z,18.70
2019-01-12T06:56:27.537Z,18.69
2019-01-12T06:57:23.601Z,18.69
2019-01-12T06:58:20.662Z,18.69
2019-01-12T06:59:17.741Z,18.69
2019-01-12T07:00:14.808Z,18.68
2019-01-12T07:01:11.870Z,18.69
2019-01-12T07:02:08.927Z,18.68
2019-01-12T07:03:05.999Z,18.68
2019-01-12T07:04:03.078Z,18.68
2019-01-12T07:05:00.182Z,18.67
2019-01-12T07:05:57.203Z,18.67
2019-01-12T07:06:54.267Z,18.65
2019-01-12T07:07:51.331Z,18.68
2019-01-12T07:08:48.390Z,18.67
2019-01-12T07:09:45.461Z,18.67
2019-01-12T07:10:42.534Z,18.69
2019-01-12T07:11:39.588Z,18.70
2019-01-12T07:12:36.666Z,18.71
2019-01-12T07:13:34.730Z,18.72
2019-01-12T07:14:30.846Z,18.76
2019-01-12T07:15:27.863Z,18.79
2019-01-12T07:16:24.922Z,18.81
2019-01-12T07:17:22.005Z,18.86
2019-01-12T07:18:18.175Z,18.89
2019-01-12T07:19:16.133Z,18.94
2019-01-12T07:20:13.200Z,18.98
2019-01-12T07:21:10.254Z,19.04
2019-01-12T07:22:07.329Z,19.07
2019-01-12T07:23:04.390Z,19.12
2019-01-12T07:24:01.473Z,19.15
2019-01-12T07:24:58.513Z,19.20
2019-01-12T07:25:55.590Z,19.25
2019-01-12T07:26:52.654Z,19.30
2019-01-12T07:27:49.729Z,19.35
2019-01-12T07:28:46.790Z,19.39
2019-01-12T07:29:43.856Z,19.43
2019-01-12T07:30:40.924Z,19.46
2019-01-12T07:31:37.982Z,19.52
2019-01-12T07:32:35.052Z,19.55
2019-01-12T07:33:32.115Z,19.57
2019-01-12T07:34:29.192Z,19.62
2019-01-12T07:35:26.250Z,19.63
2019-01-12T07:36:23.322Z,19.65
2019-01-12T07:37:20.380Z,19.68
2019-01-12T07:38:17.446Z,19.70
2019-01-12T07:39:14.519Z,19.73
2019-01-12T07:40:11.579Z,19.75
2019-01-12T07:41:08.658Z,19.76
2019-01-12T07:42:05.720Z,19.79
2019-01-12T07:43:02.784Z,19.79
2019-01-12T07:43:59.841Z,19.80
2019-01-12T07:44:56.922Z,19.81
2019-01-12T07:45:53.982Z,19.84
2019-01-12T07:46:51.053Z,19.84
2019-01-12T07:47:48.110Z,19.84
2019-01-12T07:48:45.168Z,19.85
2019-01-12T07:49:42.256Z,19.85
2019-01-12T07:50:39.302Z,19.86
2019-01-12T07:51:36.397Z,19.86
2019-01-12T07:52:33.435Z,19.87
2019-01-12T07:53:30.515Z,19.87
2019-01-12T07:54:27.569Z,19.86
2019-01-12T07:55:24.633Z,19.87
2019-01-12T07:56:24.545Z,19.87
2019-01-12T07:57:18.773Z,19.87
2019-01-12T07:58:15.837Z,19.87
2019-01-12T07:59:12.908Z,19.87
2019-01-12T08:00:09.967Z,19.87
2019-01-12T08:01:08.039Z,19.88
2019-01-12T08:02:04.109Z,19.87
2019-01-12T08:03:01.169Z,19.87
2019-01-12T08:03:58.229Z,19.87
2019-01-12T08:04:55.610Z,19.87
2019-01-12T08:05:52.364Z,19.87
2019-01-12T08:06:49.444Z,19.87
2019-01-12T08:07:46.493Z,19.87
2019-01-12T08:08:43.562Z,19.88
2019-01-12T08:09:40.634Z,19.88
2019-01-12T08:10:37.700Z,19.89
2019-01-12T08:11:34.770Z,19.88
2019-01-12T08:12:31.828Z,19.89
2019-01-12T08:13:28.894Z,19.89
2019-01-12T08:14:25.970Z,19.88
2019-01-12T08:15:23.054Z,19.90
2019-01-12T08:16:20.367Z,19.92
2019-01-12T08:17:17.151Z,19.90
2019-01-12T08:18:14.232Z,19.92
2019-01-12T08:19:11.287Z,19.93
2019-01-12T08:20:08.373Z,19.92
2019-01-12T08:21:05.421Z,19.93
2019-01-12T08:22:02.631Z,19.93
2019-01-12T08:22:59.558Z,19.95
2019-01-12T08:23:56.623Z,19.95
2019-01-12T08:24:53.689Z,19.95
2019-01-12T08:25:50.755Z,19.95
2019-01-12T08:26:47.817Z,19.95
2019-01-12T08:27:44.887Z,19.96
2019-01-12T08:28:41.954Z,19.97
2019-01-12T08:29:39.027Z,19.96
2019-01-12T08:30:36.087Z,19.97
2019-01-12T08:31:33.159Z,19.97
2019-01-12T08:32:30.232Z,19.96
2019-01-12T08:33:27.280Z,19.97
2019-01-12T08:34:24.353Z,19.96
2019-01-12T08:35:21.419Z,19.97
2019-01-12T08:36:19.615Z,19.96
2019-01-12T08:37:15.543Z,19.97
2019-01-12T08:38:12.611Z,19.95
2019-01-12T08:39:09.683Z,19.97
2019-01-12T08:40:06.755Z,19.96
2019-01-12T08:41:03.809Z,19.97
2019-01-12T08:42:00.888Z,19.95
2019-01-12T08:42:57.946Z,19.97
2019-01-12T08:43:55.024Z,19.97
2019-01-12T08:44:52.075Z,19.96
2019-01-12T08:45:49.443Z,19.97
2019-01-12T08:46:46.227Z,20.00
2019-01-12T08:47:43.276Z,20.01
2019-01-12T08:48:40.345Z,20.01
2019-01-12T08:49:37.413Z,20.02
2019-01-12T08:50:34.474Z,20.00
2019-01-12T08:51:31.540Z,19.98
2019-01-12T08:52:28.617Z,19.97
2019-01-12T08:53:25.672Z,19.96
2019-01-12T08:54:22.730Z,19.95
2019-01-12T08:55:19.798Z,19.94
2019-01-12T08:56:16.863Z,19.92
2019-01-12T08:57:13.106Z,19.92
2019-01-12T08:58:10.108Z,19.92
2019-01-12T08:59:07.195Z,19.90
2019-01-12T09:00:05.129Z,19.89
2019-01-12T09:01:01.359Z,19.87
2019-01-12T09:01:59.261Z,19.87
2019-01-12T09:02:56.656Z,19.88
2019-01-12T09:03:53.390Z,19.87
2019-01-12T09:04:49.620Z,19.87
2019-01-12T09:05:48.608Z,19.87
2019-01-12T09:06:44.702Z,19.89
2019-01-12T09:07:41.668Z,19.97
2019-01-12T09:08:38.716Z,20.02
2019-01-12T09:09:35.792Z,20.04
2019-01-12T09:10:32.855Z,20.04
2019-01-12T09:11:30.050Z,20.06
2019-01-12T09:12:26.431Z,20.07
2019-01-12T09:13:23.167Z,20.07
2019-01-12T09:14:20.290Z,20.07
2019-01-12T09:15:17.302Z,20.09
2019-01-12T09:16:14.359Z,20.10
2019-01-12T09:17:11.624Z,20.10
2019-01-12T09:18:09.506Z,20.09
2019-01-12T09:19:05.571Z,20.10
2019-01-12T09:20:02.752Z,20.09
2019-01-12T09:20:59.693Z,20.07
2019-01-12T09:21:56.796Z,20.07
2019-01-12T09:22:53.856Z,20.06
2019-01-12T09:23:50.995Z,20.07
2019-01-12T09:24:47.973Z,20.06
2019-01-12T09:25:45.018Z,20.07
2019-01-12T09:26:45.027Z,20.07
2019-01-12T09:27:39.162Z,20.07
2019-01-12T09:28:36.220Z,20.10
2019-01-12T09:29:33.300Z,20.09
2019-01-12T09:30:30.398Z,20.11
2019-01-12T09:31:27.416Z,20.12
2019-01-12T09:32:24.508Z,20.12
2019-01-12T09:33:21.568Z,20.13
2019-01-12T09:34:18.654Z,20.14
2019-01-12T09:35:16.043Z,20.18
2019-01-12T09:36:12.752Z,20.19
2019-01-12T09:37:09.879Z,20.20
2019-01-12T09:38:06.879Z,20.20
2019-01-12T09:39:03.969Z,20.20
2019-01-12T09:40:01.005Z,20.20
2019-01-12T09:40:58.079Z,20.21
2019-01-12T09:41:55.146Z,20.22
2019-01-12T09:42:52.231Z,20.23
2019-01-12T09:43:49.306Z,20.23
2019-01-12T09:44:46.368Z,20.25
2019-01-12T09:45:44.405Z,20.23
2019-01-12T09:46:40.606Z,20.25
2019-01-12T09:47:37.553Z,20.25
2019-01-12T09:48:34.641Z,20.25
2019-01-12T09:49:31.675Z,20.25
2019-01-12T09:50:28.747Z,20.25
2019-01-12T09:51:25.811Z,20.23
2019-01-12T09:52:22.873Z,20.23
2019-01-12T09:53:19.947Z,20.23
2019-01-12T09:54:17.014Z,20.23
2019-01-12T09:55:14.075Z,20.22
2019-01-12T09:56:11.143Z,20.23
2019-01-12T09:57:08.198Z,20.22
2019-01-12T09:58:05.267Z,20.23
2019-01-12T09:59:02.369Z,20.22
2019-01-12T09:59:59.398Z,20.22
2019-01-12T10:00:56.463Z,20.22
2019-01-12T10:01:53.544Z,20.20
2019-01-12T10:02:50.622Z,20.21
2019-01-12T10:03:47.662Z,20.20
2019-01-12T10:04:44.744Z,20.20
2019-01-12T10:05:41.828Z,20.20
2019-01-12T10:06:38.858Z,20.18
2019-01-12T10:07:35.930Z,20.15
2019-01-12T10:08:32.997Z,20.15
2019-01-12T10:09:31.076Z,20.14
2019-01-12T10:10:27.144Z,20.13
2019-01-12T10:11:24.199Z,20.12
2019-01-12T10:12:21.282Z,20.12
2019-01-12T10:13:18.328Z,20.11
2019-01-12T10:14:15.390Z,20.10
2019-01-12T10:15:12.492Z,20.07
2019-01-12T10:16:09.516Z,20.06
2019-01-12T10:17:06.606Z,20.04
2019-01-12T10:18:03.653Z,20.04
2019-01-12T10:19:00.746Z,20.03
2019-01-12T10:19:57.797Z,20.02
2019-01-12T10:20:54.869Z,20.03
2019-01-12T10:21:51.920Z,20.01
2019-01-12T10:22:48.991Z,20.01
2019-01-12T10:23:46.054Z,20.00
2019-01-12T10:24:43.130Z,19.96
2019-01-12T10:25:40.185Z,19.96
2019-01-12T10:26:38.255Z,19.95
2019-01-12T10:27:34.337Z,19.95
2019-01-12T10:28:31.403Z,19.95
2019-01-12T10:29:28.614Z,19.93
2019-01-12T10:30:25.521Z,19.92
2019-01-12T10:31:22.592Z,19.93
2019-01-12T10:32:19.643Z,19.93
2019-01-12T10:33:16.714Z,19.93
2019-01-12T10:34:13.790Z,19.90
2019-01-12T10:35:10.971Z,19.92
2019-01-12T10:36:07.997Z,19.90
2019-01-12T10:37:05.089Z,19.90
2019-01-12T10:38:02.158Z,19.89
2019-01-12T10:38:59.109Z,19.90
2019-01-12T10:39:56.192Z,19.90
2019-01-12T10:40:53.544Z,19.92
2019-01-12T10:41:50.305Z,19.90
2019-01-12T10:42:48.397Z,19.90
2019-01-12T10:43:44.462Z,19.92
2019-01-12T10:44:41.527Z,19.90
2019-01-12T10:45:38.603Z,19.92
2019-01-12T10:46:35.640Z,19.90
2019-01-12T10:47:32.701Z,19.92
2019-01-12T10:48:29.786Z,19.90
2019-01-12T10:49:26.838Z,19.90
2019-01-12T10:50:24.903Z,19.92
2019-01-12T10:51:20.982Z,19.90
2019-01-12T10:52:18.026Z,19.90
2019-01-12T10:53:15.133Z,19.88
2019-01-12T10:54:12.160Z,19.89
2019-01-12T10:55:09.236Z,19.88
2019-01-12T10:56:06.308Z,19.89
2019-01-12T10:57:05.687Z,19.89
2019-01-12T10:58:00.601Z,19.92
2019-01-12T10:58:57.594Z,19.93
2019-01-12T10:59:54.578Z,19.95
2019-01-12T11:00:51.651Z,19.96
2019-01-12T11:01:48.715Z,19.98
2019-01-12T11:02:45.835Z,20.01
2019-01-12T11:03:42.828Z,20.03
2019-01-12T11:04:39.924Z,20.03
2019-01-12T11:05:37.199Z,20.06
2019-01-12T11:06:34.031Z,20.09
2019-01-12T11:07:31.134Z,20.09
2019-01-12T11:08:28.163Z,20.12
2019-01-12T11:09:25.225Z,20.12
2019-01-12T11:10:22.286Z,20.12
2019-01-12T11:11:19.379Z,20.14
2019-01-12T11:12:16.408Z,20.14
2019-01-12T11:13:13.494Z,20.17
2019-01-12T11:14:10.584Z,20.19
2019-01-12T11:15:08.359Z,20.20
2019-01-12T11:16:04.771Z,20.21
2019-01-12T11:17:01.765Z,20.22
2019-01-12T11:17:58.827Z,20.25
2019-01-12T11:18:55.884Z,20.26
2019-01-12T11:19:53.936Z,20.28
2019-01-12T11:20:51.039Z,20.29
2019-01-12T11:21:47.094Z,20.29
2019-01-12T11:22:44.167Z,20.30
2019-01-12T11:23:41.217Z,20.30
2019-01-12T11:24:38.277Z,20.30
2019-01-12T11:25:35.374Z,20.32
2019-01-12T11:26:32.448Z,20.32
2019-01-12T11:27:29.587Z,20.32
2019-01-12T11:28:26.559Z,20.31
2019-01-12T11:29:23.605Z,20.31
2019-01-12T11:30:20.682Z,20.29
2019-01-12T11:31:19.857Z,20.29
2019-01-12T11:32:14.821Z,20.28
2019-01-12T11:33:11.868Z,20.26
2019-01-12T11:34:08.934Z,20.26
2019-01-12T11:35:06.004Z,20.23
2019-01-12T11:36:03.074Z,20.21
2019-01-12T11:37:00.158Z,20.20
2019-01-12T11:37:58.206Z,20.20
2019-01-12T11:38:54.275Z,20.19
2019-01-12T11:39:51.331Z,20.17
2019-01-12T11:40:48.400Z,20.17
2019-01-12T11:41:46.620Z,20.14
2019-01-12T11:42:42.534Z,20.12
2019-01-12T11:43:39.615Z,20.12
2019-01-12T11:44:36.673Z,20.12
2019-01-12T11:45:33.731Z,20.12
2019-01-12T11:46:30.789Z,20.12
2019-01-12T11:47:27.868Z,20.12
2019-01-12T11:48:25.931Z,20.10
2019-01-12T11:49:23.843Z,20.10
2019-01-12T11:50:19.093Z,20.10
2019-01-12T11:51:16.127Z,20.09
2019-01-12T11:52:13.191Z,20.07
2019-01-12T11:53:10.261Z,20.07
2019-01-12T11:54:07.325Z,20.05
2019-01-12T11:55:04.401Z,20.04
2019-01-12T11:56:01.511Z,20.04
2019-01-12T11:56:58.530Z,20.04
2019-01-12T11:57:55.586Z,20.04
2019-01-12T11:58:52.655Z,20.03
2019-01-12T11:59:49.752Z,20.03
2019-01-12T12:00:46.814Z,20.01
2019-01-12T12:01:43.892Z,20.00
2019-01-12T12:02:40.953Z,20.01
2019-01-12T12:03:38.020Z,20.00
2019-01-12T12:04:35.083Z,19.97
2019-01-12T12:05:32.119Z,19.96
2019-01-12T12:06:29.199Z,19.96
2019-01-12T12:07:26.256Z,19.95
2019-01-12T12:08:23.333Z,19.95
2019-01-12T12:09:20.383Z,19.95
2019-01-12T12:10:17.459Z,19.95
2019-01-12T12:11:14.574Z,19.94
2019-01-12T12:12:11.626Z,19.93
2019-01-12T12:13:08.659Z,19.93
2019-01-12T12:14:05.709Z,19.92
2019-01-12T12:15:02.799Z,19.92
2019-01-12T12:15:59.865Z,19.89